createdAt,value
2019-02-15T00:00:07.340Z,81.23
2019-02-15T00:01:07.305Z,81.43
2019-02-15T00:02:07.293Z,80.60
2019-02-15T00:03:07.295Z,81.43
2019-02-15T00:04:07.305Z,81.12
2019-02-15T00:05:07.268Z,81.33
2019-02-15T00:06:07.252Z,80.85
2019-02-15T00:07:07.383Z,80.81
2019-02-15T00:08:07.235Z,81.89
2019-02-15T00:09:07.220Z,81.54
2019-02-15T00:10:07.284Z,80.81
2019-02-15T00:11:07.234Z,81.23
2019-02-15T00:12:07.861Z,81.43
2019-02-15T00:13:13.259Z,80.64
2019-02-15T00:14:08.163Z,80.64
2019-02-15T00:15:07.164Z,80.60
2019-02-15T00:16:07.146Z,80.40
2019-02-15T00:17:07.187Z,80.64
2019-02-15T00:18:07.132Z,81.23
2019-02-15T00:19:07.124Z,80.54
2019-02-15T00:20:07.103Z,80.02
2019-02-15T00:21:07.108Z,80.33
2019-02-15T00:22:07.085Z,80.02
2019-02-15T00:23:07.065Z,79.56
2019-02-15T00:24:07.067Z,78.77
2019-02-15T00:25:07.043Z,79.39
2019-02-15T00:26:07.050Z,78.66
2019-02-15T00:27:07.059Z,79.49
2019-02-15T00:28:07.008Z,80.40
2019-02-15T00:29:07.020Z,80.22
2019-02-15T00:30:06.994Z,80.64
2019-02-15T00:31:06.987Z,80.54
2019-02-15T00:32:06.996Z,81.05
2019-02-15T00:33:06.981Z,80.85
2019-02-15T00:34:07.860Z,80.54
2019-02-15T00:35:07.855Z,79.98
2019-02-15T00:36:06.925Z,80.22
2019-02-15T00:37:07.069Z,80.85
2019-02-15T00:38:06.909Z,80.22
2019-02-15T00:39:06.890Z,80.43
2019-02-15T00:40:06.881Z,81.37
2019-02-15T00:41:06.877Z,81.58
2019-02-15T00:42:06.917Z,80.74
2019-02-15T00:43:06.874Z,80.85
2019-02-15T00:44:06.835Z,80.43
2019-02-15T00:45:06.864Z,80.95
2019-02-15T00:46:06.828Z,80.54
2019-02-15T00:47:06.807Z,80.43
2019-02-15T00:48:06.797Z,80.54
2019-02-15T00:49:06.780Z,80.02
2019-02-15T00:50:06.769Z,78.87
2019-02-15T00:51:06.788Z,78.87
2019-02-15T00:52:06.749Z,79.39
2019-02-15T00:53:06.759Z,79.39
2019-02-15T00:54:13.822Z,78.77
2019-02-15T00:55:06.738Z,78.34
2019-02-15T00:56:06.701Z,77.37
2019-02-15T00:57:06.687Z,77.37
2019-02-15T00:58:06.701Z,76.75
2019-02-15T00:59:06.667Z,77.17
2019-02-15T01:00:06.660Z,77.27
2019-02-15T01:01:06.791Z,76.75
2019-02-15T01:02:06.654Z,77.37
2019-02-15T01:03:06.637Z,76.65
2019-02-15T01:04:06.685Z,75.88
2019-02-15T01:05:06.601Z,76.09
2019-02-15T01:06:06.595Z,76.20
2019-02-15T01:07:06.682Z,76.30
2019-02-15T01:08:06.601Z,76.12
2019-02-15T01:09:06.565Z,76.51
2019-02-15T01:10:06.594Z,76.72
2019-02-15T01:11:06.549Z,76.09
2019-02-15T01:12:06.547Z,75.54
2019-02-15T01:13:06.536Z,75.85
2019-02-15T01:14:06.507Z,75.22
2019-02-15T01:15:06.522Z,74.70
2019-02-15T01:16:06.505Z,76.68
2019-02-15T01:17:06.474Z,75.74
2019-02-15T01:18:06.464Z,76.37
2019-02-15T01:19:06.453Z,76.61
2019-02-15T01:20:06.595Z,75.85
2019-02-15T01:21:06.431Z,76.51
2019-02-15T01:22:06.421Z,76.26
2019-02-15T01:23:06.414Z,76.06
2019-02-15T01:24:06.394Z,76.09
2019-02-15T01:25:06.403Z,76.40
2019-02-15T01:26:06.409Z,76.51
2019-02-15T01:27:06.359Z,76.30
2019-02-15T01:28:06.352Z,75.98
2019-02-15T01:29:06.373Z,76.40
2019-02-15T01:30:06.337Z,75.98
2019-02-15T01:31:06.324Z,76.33
2019-02-15T01:32:06.330Z,75.50
2019-02-15T01:33:06.304Z,76.43
2019-02-15T01:34:06.282Z,75.81
2019-02-15T01:35:06.270Z,76.43
2019-02-15T01:36:06.263Z,75.92
2019-02-15T01:37:06.272Z,76.30
2019-02-15T01:38:06.239Z,75.92
2019-02-15T01:39:06.254Z,76.02
2019-02-15T01:40:06.219Z,76.23
2019-02-15T01:41:06.224Z,76.96
2019-02-15T01:42:06.219Z,77.37
2019-02-15T01:43:06.188Z,76.86
2019-02-15T01:44:06.186Z,77.13
2019-02-15T01:45:06.198Z,76.51
2019-02-15T01:46:06.148Z,76.61
2019-02-15T01:47:06.175Z,75.60
2019-02-15T01:48:06.129Z,76.33
2019-02-15T01:49:06.146Z,76.20
2019-02-15T01:50:06.129Z,77.34
2019-02-15T01:51:06.100Z,76.61
2019-02-15T01:52:06.093Z,75.98
2019-02-15T01:53:06.079Z,76.51
2019-02-15T01:54:06.083Z,76.30
2019-02-15T01:55:06.099Z,76.61
2019-02-15T01:56:06.046Z,76.26
2019-02-15T01:57:06.030Z,75.98
2019-02-15T01:58:06.016Z,76.06
2019-02-15T01:59:06.008Z,74.08
2019-02-15T02:00:05.998Z,75.74
2019-02-15T02:01:06.014Z,75.98
2019-02-15T02:02:05.998Z,75.43
2019-02-15T02:03:05.965Z,76.06
2019-02-15T02:04:05.950Z,76.47
2019-02-15T02:05:05.959Z,74.80
2019-02-15T02:06:06.098Z,75.74
2019-02-15T02:07:05.926Z,75.54
2019-02-15T02:08:06.890Z,75.64
2019-02-15T02:09:05.926Z,75.78
2019-02-15T02:10:05.886Z,75.85
2019-02-15T02:11:05.884Z,76.82
2019-02-15T02:12:05.908Z,76.09
2019-02-15T02:13:05.856Z,76.72
2019-02-15T02:14:05.860Z,76.40
2019-02-15T02:15:05.833Z,76.51
2019-02-15T02:16:05.838Z,76.51
2019-02-15T02:17:05.814Z,76.20
2019-02-15T02:18:05.819Z,76.09
2019-02-15T02:19:05.788Z,75.36
2019-02-15T02:20:05.777Z,76.40
2019-02-15T02:21:05.788Z,76.09
2019-02-15T02:22:05.752Z,76.12
2019-02-15T02:23:05.783Z,76.51
2019-02-15T02:24:05.729Z,76.51
2019-02-15T02:25:05.726Z,77.34
2019-02-15T02:26:05.715Z,76.86
2019-02-15T02:27:05.732Z,76.75
2019-02-15T02:28:05.698Z,76.96
2019-02-15T02:29:05.682Z,76.65
2019-02-15T02:30:05.712Z,77.48
2019-02-15T02:31:05.663Z,76.96
2019-02-15T02:32:05.653Z,78.42
2019-02-15T02:33:05.726Z,78.20
2019-02-15T02:34:05.710Z,78.63
2019-02-15T02:35:05.636Z,79.25
2019-02-15T02:36:05.607Z,78.31
2019-02-15T02:37:05.591Z,78.73
2019-02-15T02:38:05.587Z,78.42
2019-02-15T02:39:05.572Z,78.42
2019-02-15T02:40:05.556Z,78.52
2019-02-15T02:41:05.582Z,78.73
2019-02-15T02:42:05.538Z,78.52
2019-02-15T02:43:05.528Z,77.89
2019-02-15T02:44:05.519Z,77.89
2019-02-15T02:45:05.511Z,77.37
2019-02-15T02:46:05.491Z,78.83
2019-02-15T02:47:05.500Z,78.31
2019-02-15T02:48:05.477Z,78.63
2019-02-15T02:49:05.476Z,77.89
2019-02-15T02:50:05.450Z,77.27
2019-02-15T02:51:05.440Z,77.37
2019-02-15T02:52:05.487Z,77.79
2019-02-15T02:53:05.451Z,77.37
2019-02-15T02:54:05.399Z,77.89
2019-02-15T02:55:05.399Z,77.27
2019-02-15T02:56:05.440Z,77.37
2019-02-15T02:57:05.421Z,77.69
2019-02-15T02:58:05.365Z,77.37
2019-02-15T02:59:05.350Z,77.37
2019-02-15T03:00:05.353Z,78.00
2019-02-15T03:01:05.349Z,78.42
2019-02-15T03:02:05.319Z,78.63
2019-02-15T03:03:05.312Z,78.94
2019-02-15T03:04:05.297Z,78.42
2019-02-15T03:05:05.284Z,78.94
2019-02-15T03:06:05.298Z,79.25
2019-02-15T03:07:05.271Z,78.52
2019-02-15T03:08:05.253Z,78.63
2019-02-15T03:09:05.241Z,78.63
2019-02-15T03:10:05.246Z,78.83
2019-02-15T03:11:05.242Z,78.52
2019-02-15T03:12:05.216Z,77.17
2019-02-15T03:13:05.216Z,77.17
2019-02-15T03:14:11.629Z,76.65
2019-02-15T03:15:06.211Z,76.43
2019-02-15T03:16:05.296Z,76.43
2019-02-15T03:17:05.179Z,77.37
2019-02-15T03:18:05.172Z,77.37
2019-02-15T03:19:05.171Z,77.34
2019-02-15T03:20:05.125Z,78.31
2019-02-15T03:21:05.128Z,78.42
2019-02-15T03:22:05.098Z,79.04
2019-02-15T03:23:05.094Z,79.25
2019-02-15T03:24:05.101Z,78.52
2019-02-15T03:25:05.067Z,78.31
2019-02-15T03:26:05.055Z,78.94
2019-02-15T03:27:05.041Z,79.39
2019-02-15T03:28:05.039Z,78.56
2019-02-15T03:29:05.040Z,79.18
2019-02-15T03:30:05.007Z,79.18
2019-02-15T03:31:05.018Z,79.08
2019-02-15T03:32:05.072Z,79.18
2019-02-15T03:33:05.007Z,79.08
2019-02-15T03:34:05.021Z,79.53
2019-02-15T03:35:05.046Z,79.94
2019-02-15T03:36:04.949Z,78.80
2019-02-15T03:37:04.931Z,79.70
2019-02-15T03:38:04.923Z,79.94
2019-02-15T03:39:04.907Z,78.80
2019-02-15T03:40:04.928Z,79.22
2019-02-15T03:41:04.888Z,79.22
2019-02-15T03:42:04.892Z,80.36
2019-02-15T03:43:04.864Z,79.84
2019-02-15T03:44:04.866Z,79.32
2019-02-15T03:45:04.844Z,79.63
2019-02-15T03:46:04.854Z,79.01
2019-02-15T03:47:04.825Z,80.47
2019-02-15T03:48:04.820Z,79.63
2019-02-15T03:49:04.799Z,79.53
2019-02-15T03:50:05.093Z,80.05
2019-02-15T03:51:04.801Z,80.05
2019-02-15T03:52:04.766Z,79.94
2019-02-15T03:53:04.784Z,79.98
2019-02-15T03:54:04.763Z,79.88
2019-02-15T03:55:04.734Z,80.47
2019-02-15T03:56:04.918Z,79.67
2019-02-15T03:57:04.741Z,80.40
2019-02-15T03:58:04.727Z,80.09
2019-02-15T03:59:04.764Z,80.09
2019-02-15T04:00:04.685Z,80.16
2019-02-15T04:01:04.674Z,79.98
2019-02-15T04:02:04.690Z,80.09
2019-02-15T04:03:04.648Z,80.30
2019-02-15T04:04:04.636Z,80.51
2019-02-15T04:05:04.622Z,81.45
2019-02-15T04:06:04.608Z,81.23
2019-02-15T04:07:04.605Z,81.86
2019-02-15T04:08:04.613Z,81.02
2019-02-15T04:09:04.594Z,80.65
2019-02-15T04:10:04.564Z,80.44
2019-02-15T04:11:04.562Z,81.16
2019-02-15T04:12:04.566Z,80.96
2019-02-15T04:13:04.541Z,81.38
2019-02-15T04:14:04.546Z,81.48
2019-02-15T04:15:04.578Z,81.69
2019-02-15T04:16:04.534Z,81.48
2019-02-15T04:17:04.495Z,81.48
2019-02-15T04:18:04.482Z,82.10
2019-02-15T04:19:04.473Z,81.48
2019-02-15T04:20:04.472Z,81.79
2019-02-15T04:21:04.463Z,81.38
2019-02-15T04:22:04.444Z,81.69
2019-02-15T04:23:04.446Z,81.69
2019-02-15T04:24:04.418Z,81.27
2019-02-15T04:25:04.405Z,82.10
2019-02-15T04:26:04.440Z,82.53
2019-02-15T04:27:04.389Z,81.90
2019-02-15T04:28:04.367Z,82.63
2019-02-15T04:29:04.354Z,82.14
2019-02-15T04:30:04.345Z,82.31
2019-02-15T04:31:04.336Z,82.53
2019-02-15T04:32:04.361Z,82.53
2019-02-15T04:33:04.321Z,82.46
2019-02-15T04:34:04.301Z,82.10
2019-02-15T04:35:04.293Z,82.77
2019-02-15T04:36:04.285Z,81.83
2019-02-15T04:37:04.290Z,82.56
2019-02-15T04:38:04.263Z,82.14
2019-02-15T04:39:04.271Z,82.87
2019-02-15T04:40:04.240Z,82.35
2019-02-15T04:41:04.257Z,82.14
2019-02-15T04:42:04.305Z,82.56
2019-02-15T04:43:04.226Z,82.87
2019-02-15T04:44:04.194Z,83.29
2019-02-15T04:45:04.194Z,82.98
2019-02-15T04:46:04.179Z,83.61
2019-02-15T04:47:04.158Z,82.77
2019-02-15T04:48:04.185Z,82.98
2019-02-15T04:49:04.154Z,83.01
2019-02-15T04:50:04.145Z,83.08
2019-02-15T04:51:04.127Z,82.87
2019-02-15T04:52:04.153Z,82.87
2019-02-15T04:53:04.132Z,83.08
2019-02-15T04:54:04.114Z,83.50
2019-02-15T04:55:04.095Z,83.33
2019-02-15T04:56:04.064Z,83.01
2019-02-15T04:57:04.054Z,82.91
2019-02-15T04:58:04.220Z,82.39
2019-02-15T04:59:04.064Z,82.91
2019-02-15T05:00:04.031Z,82.50
2019-02-15T05:01:04.066Z,82.87
2019-02-15T05:02:04.004Z,82.81
2019-02-15T05:03:03.985Z,83.50
2019-02-15T05:04:03.979Z,83.50
2019-02-15T05:05:03.992Z,82.77
2019-02-15T05:06:03.974Z,82.70
2019-02-15T05:07:03.946Z,83.12
2019-02-15T05:08:03.931Z,82.91
2019-02-15T05:09:04.916Z,83.29
2019-02-15T05:10:03.939Z,83.29
2019-02-15T05:11:03.931Z,83.12
2019-02-15T05:12:03.893Z,83.81
2019-02-15T05:13:03.881Z,83.95
2019-02-15T05:14:03.875Z,83.75
2019-02-15T05:15:03.860Z,83.12
2019-02-15T05:16:03.871Z,83.33
2019-02-15T05:17:03.845Z,83.75
2019-02-15T05:18:03.825Z,84.06
2019-02-15T05:19:03.814Z,83.95
2019-02-15T05:20:03.801Z,84.17
2019-02-15T05:21:03.788Z,83.85
2019-02-15T05:22:04.412Z,84.17
2019-02-15T05:23:03.795Z,83.95
2019-02-15T05:24:03.772Z,84.69
2019-02-15T05:25:04.419Z,84.79
2019-02-15T05:26:03.788Z,84.69
2019-02-15T05:27:03.738Z,84.62
2019-02-15T05:28:03.816Z,84.41
2019-02-15T05:29:03.712Z,84.58
2019-02-15T05:30:03.700Z,84.83
2019-02-15T05:31:03.683Z,84.52
2019-02-15T05:32:03.707Z,84.83
2019-02-15T05:33:03.678Z,85.25
2019-02-15T05:34:03.647Z,84.73
2019-02-15T05:35:03.634Z,84.73
2019-02-15T05:36:03.623Z,84.41
2019-02-15T05:37:03.610Z,84.52
2019-02-15T05:38:03.633Z,84.94
2019-02-15T05:39:03.595Z,84.83
2019-02-15T05:40:03.590Z,84.94
2019-02-15T05:41:03.679Z,85.14
2019-02-15T05:42:03.572Z,85.39
2019-02-15T05:43:03.591Z,85.60
2019-02-15T05:44:03.578Z,85.14
2019-02-15T05:45:04.319Z,86.13
2019-02-15T05:46:03.520Z,86.44
2019-02-15T05:47:03.578Z,86.82
2019-02-15T05:48:03.523Z,87.45
2019-02-15T05:49:03.481Z,87.34
2019-02-15T05:50:03.531Z,88.13
2019-02-15T05:51:03.466Z,88.34
2019-02-15T05:52:03.458Z,88.13
2019-02-15T05:53:03.476Z,87.61
2019-02-15T05:54:03.452Z,87.30
2019-02-15T05:55:03.437Z,86.77
2019-02-15T05:56:03.412Z,86.36
2019-02-15T05:57:03.399Z,86.15
2019-02-15T05:58:03.396Z,86.57
2019-02-15T05:59:03.416Z,86.15
2019-02-15T06:00:03.363Z,86.57
2019-02-15T06:01:03.358Z,86.15
2019-02-15T06:02:03.357Z,85.67
2019-02-15T06:03:03.334Z,85.83
2019-02-15T06:04:03.323Z,86.19
2019-02-15T06:05:03.327Z,85.77
2019-02-15T06:06:03.294Z,86.19
2019-02-15T06:07:03.298Z,85.77
2019-02-15T06:08:03.280Z,85.88
2019-02-15T06:09:03.302Z,85.67
2019-02-15T06:10:03.265Z,85.88
2019-02-15T06:11:07.601Z,85.88
2019-02-15T06:12:03.236Z,85.67
2019-02-15T06:13:03.251Z,85.67
2019-02-15T06:14:03.346Z,85.71
2019-02-15T06:15:14.418Z,86.65
2019-02-15T06:16:04.190Z,86.51
2019-02-15T06:17:03.257Z,86.61
2019-02-15T06:18:03.178Z,86.54
2019-02-15T06:19:03.165Z,86.13
2019-02-15T06:20:03.180Z,86.33
2019-02-15T06:21:03.142Z,86.23
2019-02-15T06:22:03.129Z,87.23
2019-02-15T06:23:03.114Z,87.45
2019-02-15T06:24:03.123Z,87.38
2019-02-15T06:25:03.131Z,87.45
2019-02-15T06:26:03.136Z,87.45
2019-02-15T06:27:03.070Z,87.34
2019-02-15T06:28:03.069Z,87.38
2019-02-15T06:29:03.049Z,87.76
2019-02-15T06:30:03.037Z,87.27
2019-02-15T06:31:03.057Z,87.38
2019-02-15T06:32:03.014Z,87.07
2019-02-15T06:33:03.004Z,86.54
2019-02-15T06:34:03.008Z,87.80
2019-02-15T06:35:02.978Z,87.17
2019-02-15T06:36:02.992Z,87.17
2019-02-15T06:37:02.969Z,87.07
2019-02-15T06:38:02.951Z,86.96
2019-02-15T06:39:02.940Z,86.85
2019-02-15T06:40:02.932Z,86.85
2019-02-15T06:41:02.920Z,86.85
2019-02-15T06:42:02.929Z,86.75
2019-02-15T06:43:02.892Z,86.75
2019-02-15T06:44:02.880Z,86.79
2019-02-15T06:45:02.876Z,86.90
2019-02-15T06:46:02.865Z,87.42
2019-02-15T06:47:03.020Z,87.38
2019-02-15T06:48:02.861Z,87.00
2019-02-15T06:49:02.832Z,87.21
2019-02-15T06:50:02.934Z,87.21
2019-02-15T06:51:02.806Z,87.00
2019-02-15T06:52:02.797Z,87.00
2019-02-15T06:53:02.883Z,86.90
2019-02-15T06:55:09.908Z,87.94
2019-02-15T06:56:02.759Z,88.04
2019-02-15T06:57:02.747Z,87.63
2019-02-15T06:58:02.728Z,87.84
2019-02-15T06:59:02.739Z,88.04
2019-02-15T07:00:02.710Z,87.94
2019-02-15T07:01:02.836Z,87.56
2019-02-15T07:02:02.725Z,87.42
2019-02-15T07:03:02.670Z,87.42
2019-02-15T07:04:02.694Z,87.31
2019-02-15T07:05:02.650Z,87.31
2019-02-15T07:06:02.666Z,87.63
2019-02-15T07:07:02.627Z,87.63
2019-02-15T07:08:02.629Z,87.77
2019-02-15T07:09:02.625Z,87.73
2019-02-15T07:10:02.594Z,87.73
2019-02-15T07:11:02.579Z,87.66
2019-02-15T07:12:02.598Z,87.63
2019-02-15T07:13:02.567Z,87.66
2019-02-15T07:14:02.565Z,87.73
2019-02-15T07:15:02.539Z,87.52
2019-02-15T07:16:02.531Z,87.94
2019-02-15T07:17:02.520Z,87.73
2019-02-15T07:18:02.532Z,87.73
2019-02-15T07:19:02.501Z,87.42
2019-02-15T07:20:02.570Z,87.31
2019-02-15T07:21:02.519Z,87.42
2019-02-15T07:22:02.484Z,87.63
2019-02-15T07:23:03.457Z,87.38
2019-02-15T07:24:02.441Z,87.17
2019-02-15T07:25:02.440Z,87.31
2019-02-15T07:26:02.423Z,87.38
2019-02-15T07:27:02.441Z,88.01
2019-02-15T07:28:02.453Z,87.73
2019-02-15T07:29:02.399Z,87.90
2019-02-15T07:30:02.406Z,87.59
2019-02-15T07:31:02.424Z,87.48
2019-02-15T07:32:02.372Z,87.38
2019-02-15T07:33:02.345Z,87.59
2019-02-15T07:34:02.400Z,87.69
2019-02-15T07:35:02.333Z,87.48
2019-02-15T07:36:02.323Z,88.01
2019-02-15T07:37:02.309Z,87.80
2019-02-15T07:38:02.288Z,87.48
2019-02-15T07:39:02.325Z,87.90
2019-02-15T07:40:02.274Z,87.48
2019-02-15T07:41:02.270Z,87.86
2019-02-15T07:42:02.256Z,88.32
2019-02-15T07:43:02.254Z,88.01
2019-02-15T07:44:02.240Z,87.45
2019-02-15T07:45:02.252Z,87.55
2019-02-15T07:46:02.202Z,87.86
2019-02-15T07:47:02.208Z,87.55
2019-02-15T07:48:02.199Z,87.45
2019-02-15T07:49:02.191Z,87.86
2019-02-15T07:50:02.188Z,87.51
2019-02-15T07:51:09.346Z,87.82
2019-02-15T07:52:03.182Z,87.93
2019-02-15T07:53:02.210Z,87.61
2019-02-15T07:54:02.127Z,87.71
2019-02-15T07:55:02.115Z,87.61
2019-02-15T07:56:02.120Z,87.51
2019-02-15T07:57:02.099Z,87.47
2019-02-15T07:58:02.090Z,87.37
2019-02-15T07:59:02.083Z,87.78
2019-02-15T08:00:02.055Z,87.47
2019-02-15T08:01:02.077Z,87.32
2019-02-15T08:02:02.348Z,87.12
2019-02-15T08:03:02.036Z,87.32
2019-02-15T08:04:02.144Z,87.43
2019-02-15T08:05:02.006Z,87.43
2019-02-15T08:06:02.029Z,87.53
2019-02-15T08:07:01.985Z,87.70
2019-02-15T08:08:01.976Z,87.39
2019-02-15T08:09:01.963Z,86.61
2019-02-15T08:10:01.946Z,86.20
2019-02-15T08:11:01.942Z,86.30
2019-02-15T08:12:01.953Z,86.06
2019-02-15T08:13:01.905Z,84.39
2019-02-15T08:14:01.908Z,83.42
2019-02-15T08:15:01.895Z,82.65
2019-02-15T08:16:02.885Z,81.57
2019-02-15T08:17:01.899Z,80.91
2019-02-15T08:18:01.887Z,79.83
2019-02-15T08:19:01.841Z,79.94
2019-02-15T08:20:01.986Z,77.58
2019-02-15T08:21:01.840Z,77.23
2019-02-15T08:22:01.831Z,76.99
2019-02-15T08:23:01.859Z,75.98
2019-02-15T08:24:01.827Z,75.36
2019-02-15T08:25:02.910Z,74.19
2019-02-15T08:26:01.774Z,73.08
2019-02-15T08:27:01.765Z,73.15
2019-02-15T08:28:01.768Z,71.26
2019-02-15T08:29:01.733Z,69.06
2019-02-15T08:30:01.740Z,68.54
2019-02-15T08:31:01.716Z,67.68
2019-02-15T08:32:01.712Z,67.96
2019-02-15T08:33:01.703Z,66.61
2019-02-15T08:34:01.695Z,66.89
2019-02-15T08:35:01.706Z,65.94
2019-02-15T08:36:01.663Z,63.97
2019-02-15T08:37:01.652Z,64.25
2019-02-15T08:38:01.640Z,65.77
2019-02-15T08:39:01.630Z,65.15
2019-02-15T08:40:01.645Z,63.68
2019-02-15T08:41:01.629Z,64.92
2019-02-15T08:42:04.515Z,63.99
2019-02-15T08:43:01.582Z,62.72
2019-02-15T08:44:01.578Z,61.69
2019-02-15T08:45:01.574Z,63.85
2019-02-15T08:46:03.300Z,64.75
2019-02-15T08:47:01.776Z,64.96
2019-02-15T08:48:01.524Z,62.49
2019-02-15T08:49:01.505Z,63.52
2019-02-15T08:50:01.501Z,59.30
2019-02-15T08:51:01.498Z,60.02
2019-02-15T08:52:01.531Z,63.59
2019-02-15T08:53:01.482Z,63.69
2019-02-15T08:54:01.460Z,64.62
2019-02-15T08:55:01.444Z,63.87
2019-02-15T08:56:01.428Z,63.67
2019-02-15T08:57:01.440Z,65.92
2019-02-15T08:58:01.448Z,62.12
2019-02-15T08:59:02.031Z,60.06
2019-02-15T09:00:01.383Z,60.03
2019-02-15T09:01:01.381Z,62.60
2019-02-15T09:02:01.371Z,61.47
2019-02-15T09:03:01.507Z,62.30
2019-02-15T09:04:01.341Z,63.64
2019-02-15T09:05:02.117Z,63.84
2019-02-15T09:06:01.357Z,59.29
2019-02-15T09:07:01.307Z,59.39
2019-02-15T09:08:01.340Z,59.91
2019-02-15T09:09:01.288Z,61.00
2019-02-15T09:10:01.284Z,62.27
2019-02-15T09:11:02.396Z,59.88
2019-02-15T09:12:01.257Z,59.91
2019-02-15T09:13:01.268Z,62.45
2019-02-15T09:14:01.235Z,57.59
2019-02-15T09:15:01.240Z,59.26
2019-02-15T09:16:09.839Z,60.26
2019-02-15T09:17:02.210Z,58.83
2019-02-15T09:18:01.189Z,59.03
2019-02-15T09:19:01.185Z,59.44
2019-02-15T09:20:01.164Z,59.82
2019-02-15T09:21:01.181Z,55.82
2019-02-15T09:22:01.238Z,60.26
2019-02-15T09:23:01.161Z,58.69
2019-02-15T09:24:01.123Z,58.80
2019-02-15T09:25:01.114Z,58.07
2019-02-15T09:26:01.147Z,61.16
2019-02-15T09:27:01.268Z,64.34
2019-02-15T09:28:01.109Z,59.28
2019-02-15T09:29:01.066Z,59.89
2019-02-15T09:30:01.102Z,59.41
2019-02-15T09:31:01.074Z,58.56
2019-02-15T09:32:01.029Z,57.23
2019-02-15T09:33:01.043Z,56.51
2019-02-15T09:34:01.037Z,57.75
2019-02-15T09:35:00.997Z,58.97
2019-02-15T09:36:00.988Z,60.10
2019-02-15T09:37:00.972Z,59.25
2019-02-15T09:38:01.000Z,58.77
2019-02-15T09:39:00.959Z,59.87
2019-02-15T09:40:00.944Z,58.44
2019-02-15T09:41:00.955Z,57.82
2019-02-15T09:42:00.931Z,57.69
2019-02-15T09:43:01.052Z,54.10
2019-02-15T09:44:00.910Z,56.87
2019-02-15T09:45:00.897Z,57.28
2019-02-15T09:46:00.984Z,56.46
2019-02-15T09:47:00.876Z,57.66
2019-02-15T09:48:00.863Z,56.46
2019-02-15T09:49:00.864Z,54.18
2019-02-15T09:50:00.828Z,55.82
2019-02-15T09:51:00.821Z,53.97
2019-02-15T09:52:00.824Z,58.17
2019-02-15T09:53:00.828Z,54.69
2019-02-15T09:54:00.788Z,54.08
2019-02-15T09:55:00.774Z,59.61
2019-02-15T09:56:00.762Z,58.15
2019-02-15T09:57:00.750Z,58.35
2019-02-15T09:58:00.776Z,62.04
2019-02-15T09:59:01.475Z,56.30
2019-02-15T10:00:00.726Z,59.68
2019-02-15T10:01:00.709Z,54.16
2019-02-15T10:02:00.747Z,55.28
2019-02-15T10:03:00.704Z,58.12
2019-02-15T10:04:00.676Z,57.02
2019-02-15T10:05:00.754Z,56.61
2019-02-15T10:06:00.679Z,58.56
2019-02-15T10:07:00.645Z,54.85
2019-02-15T10:08:00.648Z,53.62
2019-02-15T10:09:00.630Z,55.77
2019-02-15T10:10:00.615Z,56.35
2019-02-15T10:11:00.590Z,61.67
2019-02-15T10:12:00.607Z,59.22
2019-02-15T10:13:00.605Z,60.03
2019-02-15T10:14:00.585Z,55.74
2019-02-15T10:15:00.577Z,55.43
2019-02-15T10:16:00.572Z,59.83
2019-02-15T10:17:00.522Z,61.36
2019-02-15T10:18:00.518Z,53.69
2019-02-15T10:19:00.515Z,57.86
2019-02-15T10:20:00.528Z,57.66
2019-02-15T10:21:00.478Z,53.67
2019-02-15T10:22:00.467Z,53.98
2019-02-15T10:23:00.525Z,57.12
2019-02-15T10:24:00.455Z,52.72
2019-02-15T10:25:00.445Z,53.85
2019-02-15T10:26:00.425Z,53.11
2019-02-15T10:27:00.413Z,54.85
2019-02-15T10:28:00.408Z,54.33
2019-02-15T10:29:00.409Z,58.73
2019-02-15T10:30:02.424Z,57.81
2019-02-15T10:31:00.365Z,56.07
2019-02-15T10:32:00.365Z,54.03
2019-02-15T10:33:00.379Z,54.44
2019-02-15T10:34:00.354Z,56.58
2019-02-15T10:35:00.414Z,57.17
2019-02-15T10:36:00.313Z,53.90
2019-02-15T10:37:00.301Z,54.21
2019-02-15T10:38:00.357Z,52.47
2019-02-15T10:39:00.307Z,58.39
2019-02-15T10:40:00.338Z,57.07
2019-02-15T10:41:00.274Z,56.32
2019-02-15T10:42:00.252Z,58.37
2019-02-15T10:43:00.266Z,57.07
2019-02-15T10:44:00.228Z,54.18
2019-02-15T10:45:00.238Z,51.93
2019-02-15T10:46:00.227Z,55.10
2019-02-15T10:47:00.195Z,59.18
2019-02-15T10:48:00.207Z,59.49
2019-02-15T10:49:00.206Z,53.67
2019-02-15T10:50:00.313Z,54.59
2019-02-15T10:51:00.142Z,57.62
2019-02-15T10:52:00.167Z,57.04
2019-02-15T10:53:00.130Z,57.01
2019-02-15T10:54:00.227Z,54.67
2019-02-15T10:55:00.285Z,53.85
2019-02-15T10:56:00.096Z,55.18
2019-02-15T10:57:00.075Z,55.79
2019-02-15T10:58:00.087Z,54.67
2019-02-15T10:59:00.066Z,55.28
2019-02-15T11:00:00.289Z,52.40
2019-02-15T11:01:00.069Z,54.77
2019-02-15T11:02:00.022Z,55.66
2019-02-15T11:03:00.027Z,51.81
2019-02-15T11:04:00.092Z,52.12
2019-02-15T11:05:00.002Z,55.46
2019-02-15T11:05:59.972Z,51.68
2019-02-15T11:07:00.001Z,49.44
2019-02-15T11:07:59.976Z,48.93
2019-02-15T11:08:59.975Z,53.31
2019-02-15T11:09:59.936Z,55.13
2019-02-15T11:10:59.960Z,52.27
2019-02-15T11:11:59.914Z,51.76
2019-02-15T11:12:59.921Z,52.86
2019-02-15T11:13:59.894Z,53.16
2019-02-15T11:14:59.885Z,48.71
2019-02-15T11:15:59.876Z,52.96
2019-02-15T11:16:59.867Z,53.67
2019-02-15T11:17:59.908Z,50.82
2019-02-15T11:18:59.869Z,51.03
2019-02-15T11:19:59.823Z,49.42
2019-02-15T11:20:59.848Z,51.74
2019-02-15T11:21:59.801Z,50.62
2019-02-15T11:22:59.840Z,56.22
2019-02-15T11:23:59.784Z,52.55
2019-02-15T11:24:59.767Z,53.88
2019-02-15T11:25:59.750Z,52.96
2019-02-15T11:26:59.767Z,52.45
2019-02-15T11:27:59.767Z,55.61
2019-02-15T11:28:59.757Z,50.59
2019-02-15T11:29:59.711Z,52.04
2019-02-15T11:30:59.703Z,50.29
2019-02-15T11:31:59.695Z,49.07
2019-02-15T11:32:59.712Z,49.48
2019-02-15T11:33:59.673Z,48.05
2019-02-15T11:34:59.677Z,55.25
2019-02-15T11:35:59.647Z,53.22
2019-02-15T11:36:59.636Z,52.02
2019-02-15T11:37:59.622Z,54.54
2019-02-15T11:38:59.833Z,52.61
2019-02-15T11:39:59.621Z,51.59
2019-02-15T11:40:59.623Z,49.55
2019-02-15T11:41:59.589Z,52.91
2019-02-15T11:42:59.573Z,52.10
2019-02-15T11:43:59.580Z,55.66
2019-02-15T11:44:59.550Z,55.55
2019-02-15T11:45:59.529Z,51.87
2019-02-15T11:46:59.559Z,51.08
2019-02-15T11:47:59.511Z,50.24
2019-02-15T11:48:59.538Z,50.78
2019-02-15T11:49:59.560Z,52.17
2019-02-15T11:50:59.498Z,47.29
2019-02-15T11:51:59.509Z,51.67
2019-02-15T11:52:59.456Z,51.46
2019-02-15T11:53:59.452Z,52.89
2019-02-15T11:54:59.430Z,50.04
2019-02-15T11:55:59.456Z,54.72
2019-02-15T11:56:59.408Z,53.29
2019-02-15T11:57:59.516Z,49.63
2019-02-15T11:58:59.387Z,51.56
2019-02-15T11:59:59.402Z,48.92
2019-02-15T12:00:59.363Z,50.04
2019-02-15T12:02:05.878Z,51.44
2019-02-15T12:03:00.369Z,49.91
2019-02-15T12:03:59.356Z,49.00
2019-02-15T12:04:59.322Z,47.58
2019-02-15T12:05:59.352Z,46.15
2019-02-15T12:06:59.318Z,54.79
2019-02-15T12:07:59.284Z,58.76
2019-02-15T12:08:59.298Z,54.08
2019-02-15T12:09:59.266Z,49.51
2019-02-15T12:10:59.251Z,48.87
2019-02-15T12:11:59.269Z,48.16
2019-02-15T12:12:59.227Z,53.55
2019-02-15T12:13:59.262Z,49.99
2019-02-15T12:14:59.205Z,51.82
2019-02-15T12:15:59.198Z,49.08
2019-02-15T12:17:05.466Z,47.86
2019-02-15T12:18:00.177Z,47.86
2019-02-15T12:18:59.158Z,50.90
2019-02-15T12:19:59.165Z,54.26
2019-02-15T12:20:59.133Z,49.79
2019-02-15T12:21:59.211Z,55.18
2019-02-15T12:22:59.115Z,49.87
2019-02-15T12:23:59.139Z,52.00
2019-02-15T12:24:59.090Z,49.66
2019-02-15T12:25:59.098Z,47.74
2019-02-15T12:26:59.084Z,47.41
2019-02-15T12:27:59.056Z,46.49
2019-02-15T12:28:59.045Z,44.65
2019-02-15T12:29:59.058Z,43.38
2019-02-15T12:30:59.022Z,46.00
2019-02-15T12:31:59.033Z,48.43
2019-02-15T12:32:59.023Z,46.20
2019-02-15T12:33:59.005Z,49.44
2019-02-15T12:34:58.997Z,47.11
2019-02-15T12:35:58.961Z,47.72
2019-02-15T12:36:58.974Z,45.39
2019-02-15T12:37:59.040Z,47.02
2019-02-15T12:38:58.936Z,49.24
2019-02-15T12:39:58.917Z,51.65
2019-02-15T12:40:58.953Z,49.48
2019-02-15T12:41:58.905Z,44.80
2019-02-15T12:42:58.892Z,51.32
2019-02-15T12:43:58.872Z,46.23
2019-02-15T12:44:58.871Z,48.91
2019-02-15T12:45:58.867Z,42.74
2019-02-15T12:46:58.872Z,47.55
2019-02-15T12:47:58.833Z,43.30
2019-02-15T12:48:58.838Z,41.59
2019-02-15T12:49:58.813Z,45.09
2019-02-15T12:50:58.804Z,38.25
2019-02-15T12:51:58.824Z,38.75
2019-02-15T12:52:58.796Z,38.45